Time;durP1;ratioP1;P1;durP2;ratioP2;P2;SDS_P1;SDS_P2;PMS_P1;PMS_P2;Temp;Humidity;BMP_temperature;BMP_pressure;BME280_temperature;BME280_humidity;BME280_pressure;Samples;Min_cycle;Max_cycle;Signal;HPM_P1;HPM_P2
2023/02/03 00:00:32;;;;;;;18.52;10.55;;;;;;;;;;5049182;28;20044;-78
2023/02/03 00:02:58;;;;;;;18.98;12.68;;;;;;;;;;5048595;28;20111;-78
2023/02/03 00:05:24;;;;;;;16.05;10.07;;;;;;;;;;5049599;28;20515;-79
2023/02/03 00:07:50;;;;;;;14.02;11.20;;;;;;;;;;5049150;28;20033;-78
2023/02/03 00:10:20;;;;;;;22.65;13.27;;;;;;;;;;5048791;28;20074;-79
2023/02/03 00:12:47;;;;;;;20.45;10.70;;;;;;;;;;5048693;28;20152;-78
2023/02/03 00:15:13;;;;;;;17.17;11.57;;;;;;;;;;5048609;28;20067;-78
2023/02/03 00:17:39;;;;;;;15.40;11.80;;;;;;;;;;5048739;28;20091;-78
2023/02/03 00:20:06;;;;;;;21.95;12.80;;;;;;;;;;5051886;28;20041;-78
2023/02/03 00:22:32;;;;;;;11.50;9.18;;;;;;;;;;5034722;28;20135;-79
2023/02/03 00:24:59;;;;;;;16.63;10.57;;;;;;;;;;5052615;28;20039;-78
2023/02/03 00:27:25;;;;;;;17.10;9.98;;;;;;;;;;5052307;28;20029;-79
2023/02/03 00:29:51;;;;;;;19.65;11.38;;;;;;;;;;5035037;28;20036;-80
2023/02/03 00:32:17;;;;;;;15.65;11.93;;;;;;;;;;5053677;28;20116;-81
2023/02/03 00:34:43;;;;;;;24.38;14.18;;;;;;;;;;5037888;28;20037;-80
2023/02/03 00:37:11;;;;;;;15.40;10.80;;;;;;;;;;5055195;28;20085;-81
2023/02/03 00:39:37;;;;;;;27.23;14.30;;;;;;;;;;5036421;28;20044;-81
2023/02/03 00:42:04;;;;;;;31.33;18.23;;;;;;;;;;5035285;28;20065;-80
2023/02/03 00:44:30;;;;;;;29.33;14.93;;;;;;;;;;5035688;28;20041;-80
2023/02/03 00:46:56;;;;;;;32.20;17.98;;;;;;;;;;5021561;28;20082;-80
2023/02/03 00:49:22;;;;;;;25.90;16.83;;;;;;;;;;5034904;28;20033;-80
2023/02/03 00:51:49;;;;;;;34.58;16.50;;;;;;;;;;5018521;28;20045;-80
2023/02/03 00:54:15;;;;;;;21.52;12.38;;;;;;;;;;5042174;28;20033;-79
2023/02/03 00:56:41;;;;;;;21.15;13.60;;;;;;;;;;5054230;28;20063;-80
2023/02/03 00:59:07;;;;;;;20.95;12.63;;;;;;;;;;5034580;28;20359;-80
2023/02/03 01:01:33;;;;;;;15.68;8.27;;;;;;;;;;5040683;28;20037;-79
2023/02/03 01:03:59;;;;;;;19.70;12.10;;;;;;;;;;5054224;28;20041;-81
2023/02/03 01:06:25;;;;;;;34.40;16.70;;;;;;;;;;5036374;28;20031;-82
2023/02/03 01:08:52;;;;;;;22.80;14.43;;;;;;;;;;5062551;28;20120;-81
2023/02/03 01:11:19;;;;;;;30.05;16.88;;;;;;;;;;5057406;28;20103;-81
2023/02/03 01:13:47;;;;;;;28.70;14.82;;;;;;;;;;5037490;28;20578;-81
2023/02/03 01:16:14;;;;;;;26.25;12.05;;;;;;;;;;5015033;28;20388;-80
2023/02/03 01:18:41;;;;;;;13.98;11.00;;;;;;;;;;5029210;28;20029;-81
2023/02/03 01:21:13;;;;;;;25.05;13.30;;;;;;;;;;5034152;28;20468;-80
2023/02/03 01:23:39;;;;;;;15.10;9.63;;;;;;;;;;5051948;28;20419;-80
2023/02/03 01:26:05;;;;;;;15.85;9.30;;;;;;;;;;5018528;28;20024;-81
2023/02/03 01:28:32;;;;;;;22.58;13.75;;;;;;;;;;5051963;28;20041;-80
2023/02/03 01:31:07;;;;;;;29.35;16.60;;;;;;;;;;5050914;28;20056;-80
2023/02/03 01:33:33;;;;;;;21.88;12.50;;;;;;;;;;5051828;28;20395;-79
2023/02/03 01:35:59;;;;;;;24.65;14.68;;;;;;;;;;5034189;28;20028;-81
2023/02/03 01:38:25;;;;;;;32.35;16.33;;;;;;;;;;5050996;28;20037;-79
2023/02/03 01:40:52;;;;;;;29.20;14.48;;;;;;;;;;5033887;28;20051;-79
2023/02/03 01:43:29;;;;;;;26.55;13.13;;;;;;;;;;5051366;28;20052;-80
2023/02/03 01:45:56;;;;;;;17.25;13.32;;;;;;;;;;5052091;28;20137;-79
2023/02/03 01:48:22;;;;;;;22.13;12.27;;;;;;;;;;5028928;28;20025;-79
2023/02/03 01:50:48;;;;;;;16.05;11.93;;;;;;;;;;5043246;28;20055;-79
2023/02/03 01:53:14;;;;;;;22.42;11.85;;;;;;;;;;5050568;28;20459;-78
2023/02/03 01:55:41;;;;;;;25.70;14.85;;;;;;;;;;5051197;28;20032;-79
2023/02/03 01:58:11;;;;;;;18.23;12.63;;;;;;;;;;5016229;28;20067;-81
2023/02/03 02:00:37;;;;;;;24.40;14.82;;;;;;;;;;5033827;28;20083;-81
2023/02/03 02:03:03;;;;;;;24.70;13.13;;;;;;;;;;5033986;28;20514;-80
2023/02/03 02:05:31;;;;;;;26.08;14.82;;;;;;;;;;5017519;28;20115;-81
2023/02/03 02:07:58;;;;;;;20.38;13.20;;;;;;;;;;5035662;28;20105;-81
2023/02/03 02:10:24;;;;;;;29.65;15.13;;;;;;;;;;5018243;28;20365;-82
2023/02/03 02:12:50;;;;;;;15.75;9.73;;;;;;;;;;5035268;28;20033;-81
2023/02/03 02:15:17;;;;;;;31.70;15.63;;;;;;;;;;5051561;28;20526;-81
2023/02/03 02:17:50;;;;;;;16.83;11.65;;;;;;;;;;5033244;28;20049;-80
2023/02/03 02:20:22;;;;;;;28.58;13.60;;;;;;;;;;5032899;28;20116;-80
2023/02/03 02:22:50;;;;;;;16.98;11.95;;;;;;;;;;5039976;28;20076;-81
2023/02/03 02:25:24;;;;;;;31.05;17.13;;;;;;;;;;5032440;28;20068;-79
2023/02/03 02:27:57;;;;;;;33.03;14.93;;;;;;;;;;5020548;28;20071;-81
2023/02/03 02:30:41;;;;;;;33.38;17.73;;;;;;;;;;5054569;28;20029;-81
2023/02/03 02:33:08;;;;;;;34.75;17.23;;;;;;;;;;5019619;28;20039;-81
2023/02/03 02:35:34;;;;;;;26.48;14.85;;;;;;;;;;5033833;28;20037;-80
2023/02/03 02:38:07;;;;;;;32.88;17.42;;;;;;;;;;5012979;28;20045;-80
2023/02/03 02:40:42;;;;;;;33.75;16.15;;;;;;;;;;5003396;28;20116;-80
2023/02/03 02:43:15;;;;;;;23.88;14.30;;;;;;;;;;5015320;28;20069;-80
2023/02/03 02:45:47;;;;;;;33.42;17.65;;;;;;;;;;5032379;28;20036;-79
2023/02/03 02:48:28;;;;;;;39.05;18.02;;;;;;;;;;5032065;28;20075;-78
2023/02/03 02:50:55;;;;;;;36.33;16.85;;;;;;;;;;5018518;28;20127;-82
2023/02/03 02:53:23;;;;;;;44.13;19.15;;;;;;;;;;5037127;28;20041;-81
2023/02/03 02:55:50;;;;;;;27.50;14.07;;;;;;;;;;5035187;28;20068;-82
2023/02/03 02:58:16;;;;;;;41.55;18.80;;;;;;;;;;5057875;28;20055;-81
2023/02/03 03:00:43;;;;;;;27.45;15.48;;;;;;;;;;5014596;28;20072;-81
2023/02/03 03:03:19;;;;;;;26.08;13.52;;;;;;;;;;5033412;28;20049;-81
2023/02/03 03:05:52;;;;;;;42.63;17.65;;;;;;;;;;5037196;28;20102;-79
2023/02/03 03:08:21;;;;;;;34.55;18.35;;;;;;;;;;5044078;28;20529;-79
2023/02/03 03:10:48;;;;;;;35.70;17.98;;;;;;;;;;5020049;28;20032;-80
2023/02/03 03:13:16;;;;;;;29.70;15.35;;;;;;;;;;5039189;28;20572;-80
2023/02/03 03:15:45;;;;;;;17.73;12.27;;;;;;;;;;5022957;28;20044;-79
2023/02/03 03:18:27;;;;;;;21.60;12.82;;;;;;;;;;5015128;28;20060;-79
2023/02/03 03:20:54;;;;;;;22.95;14.05;;;;;;;;;;5017505;28;20123;-79
2023/02/03 03:23:26;;;;;;;40.38;20.15;;;;;;;;;;5037632;28;20135;-80
2023/02/03 03:25:56;;;;;;;30.75;16.52;;;;;;;;;;5050277;28;20094;-78
2023/02/03 03:28:25;;;;;;;36.13;16.60;;;;;;;;;;5049094;28;20037;-80
2023/02/03 03:30:51;;;;;;;29.88;16.30;;;;;;;;;;5032426;28;20032;-83
2023/02/03 03:33:17;;;;;;;33.17;17.20;;;;;;;;;;5048237;28;20029;-81
2023/02/03 03:35:43;;;;;;;39.60;18.70;;;;;;;;;;5050286;28;20048;-84
2023/02/03 03:38:10;;;;;;;43.00;21.42;;;;;;;;;;5027723;28;20048;-85
2023/02/03 03:40:41;;;;;;;20.52;11.88;;;;;;;;;;5062982;28;20117;-84
2023/02/03 03:43:10;;;;;;;37.03;17.25;;;;;;;;;;5069554;28;20056;-83
2023/02/03 03:46:08;;;;;;;32.38;18.08;;;;;;;;;;5083481;28;20036;-82
2023/02/03 03:48:39;;;;;;;30.50;15.88;;;;;;;;;;5011303;28;20047;-82
2023/02/03 03:51:09;;;;;;;37.72;16.83;;;;;;;;;;5053981;28;20040;-84
2023/02/03 03:53:35;;;;;;;31.45;14.77;;;;;;;;;;5041264;28;20096;-83
2023/02/03 03:56:01;;;;;;;30.75;16.38;;;;;;;;;;5062261;28;20040;-84
2023/02/03 03:58:29;;;;;;;36.20;17.88;;;;;;;;;;5072214;28;20033;-84
2023/02/03 04:00:56;;;;;;;42.58;19.73;;;;;;;;;;5076293;28;20042;-83
2023/02/03 04:03:23;;;;;;;31.00;15.73;;;;;;;;;;5057985;28;20079;-85
2023/02/03 04:05:50;;;;;;;20.45;12.27;;;;;;;;;;5043215;28;20025;-83
2023/02/03 04:08:16;;;;;;;35.83;17.17;;;;;;;;;;5084208;28;20088;-83
2023/02/03 04:10:42;;;;;;;49.00;17.38;;;;;;;;;;5085303;28;20037;-86
2023/02/03 04:13:08;;;;;;;40.15;18.50;;;;;;;;;;5074977;28;20051;-84
2023/02/03 04:15:35;;;;;;;41.70;19.58;;;;;;;;;;5045850;28;20106;-80
2023/02/03 04:18:01;;;;;;;46.17;20.17;;;;;;;;;;5065905;28;20120;-85
2023/02/03 04:20:27;;;;;;;49.78;21.55;;;;;;;;;;5070499;28;20056;-84
2023/02/03 04:22:53;;;;;;;39.85;18.58;;;;;;;;;;5050756;28;20053;-82
2023/02/03 04:25:19;;;;;;;40.03;19.77;;;;;;;;;;5059479;28;20085;-85
2023/02/03 04:27:45;;;;;;;45.42;22.15;;;;;;;;;;5070336;28;20033;-83
2023/02/03 04:30:11;;;;;;;27.65;14.77;;;;;;;;;;5068557;28;20094;-85
2023/02/03 04:32:37;;;;;;;26.75;14.73;;;;;;;;;;5054324;28;20021;-84
2023/02/03 04:35:04;;;;;;;27.95;12.95;;;;;;;;;;5076358;28;20024;-85
2023/02/03 04:37:30;;;;;;;38.15;17.70;;;;;;;;;;5080510;28;20009;-84
2023/02/03 04:39:57;;;;;;;35.30;15.65;;;;;;;;;;5077987;28;20045;-84
2023/02/03 04:42:23;;;;;;;38.22;19.73;;;;;;;;;;5058835;28;20077;-86
2023/02/03 04:44:50;;;;;;;41.10;21.13;;;;;;;;;;5058494;28;20033;-86
2023/02/03 04:47:16;;;;;;;46.13;20.55;;;;;;;;;;5055901;28;20057;-86
2023/02/03 04:49:42;;;;;;;50.30;22.58;;;;;;;;;;5052060;28;20036;-85
2023/02/03 04:52:09;;;;;;;32.10;13.02;;;;;;;;;;5069330;28;20040;-86
2023/02/03 04:54:34;;;;;;;42.35;18.48;;;;;;;;;;5071751;28;20029;-85
2023/02/03 04:57:01;;;;;;;55.35;21.80;;;;;;;;;;5054203;28;20060;-85
2023/02/03 04:59:27;;;;;;;49.58;23.17;;;;;;;;;;5071726;28;20044;-87
2023/02/03 05:01:53;;;;;;;39.95;20.83;;;;;;;;;;5068127;28;20056;-86
2023/02/03 05:04:19;;;;;;;41.13;17.73;;;;;;;;;;5051126;28;20025;-85
2023/02/03 05:06:45;;;;;;;35.55;17.45;;;;;;;;;;5089426;28;20048;-85
2023/02/03 05:09:11;;;;;;;54.60;21.65;;;;;;;;;;5076927;28;20040;-84
2023/02/03 05:11:38;;;;;;;19.70;10.77;;;;;;;;;;5077336;28;20037;-84
2023/02/03 05:14:04;;;;;;;46.65;20.08;;;;;;;;;;5059259;28;20021;-84
2023/02/03 05:16:30;;;;;;;37.95;18.52;;;;;;;;;;5077391;28;20056;-87
2023/02/03 05:18:56;;;;;;;57.88;23.60;;;;;;;;;;5057307;28;20017;-85
2023/02/03 05:21:22;;;;;;;51.13;19.80;;;;;;;;;;5079372;28;20108;-85
2023/02/03 05:23:48;;;;;;;24.73;13.35;;;;;;;;;;5057777;28;20041;-86
2023/02/03 05:26:14;;;;;;;38.92;17.55;;;;;;;;;;5075578;28;20084;-84
2023/02/03 05:28:40;;;;;;;36.50;17.38;;;;;;;;;;5074618;28;20074;-85
2023/02/03 05:31:06;;;;;;;48.80;20.63;;;;;;;;;;5074090;28;20053;-85
2023/02/03 05:33:32;;;;;;;49.75;19.27;;;;;;;;;;5054531;28;20033;-85
2023/02/03 05:35:58;;;;;;;49.17;21.27;;;;;;;;;;5073882;28;20048;-85
2023/02/03 05:38:25;;;;;;;39.50;16.77;;;;;;;;;;5072851;28;20037;-85
2023/02/03 05:43:35;;;;;;;36.00;16.77;;;;;;;;;;5076115;28;20129;-82
2023/02/03 05:46:05;;;;;;;26.42;13.35;;;;;;;;;;5043302;28;20036;-82
2023/02/03 05:48:31;;;;;;;32.25;17.45;;;;;;;;;;5058752;28;20048;-84
2023/02/03 05:50:57;;;;;;;53.72;23.60;;;;;;;;;;5058596;28;20084;-83
2023/02/03 05:53:24;;;;;;;46.70;18.25;;;;;;;;;;5075399;28;20037;-85
2023/02/03 05:55:51;;;;;;;43.17;19.00;;;;;;;;;;5075971;28;20067;-82
2023/02/03 05:58:16;;;;;;;38.50;18.75;;;;;;;;;;5038066;28;20038;-83
2023/02/03 06:00:43;;;;;;;52.78;21.40;;;;;;;;;;5054368;28;20499;-82
2023/02/03 06:03:09;;;;;;;51.65;20.90;;;;;;;;;;5056739;28;20198;-83
2023/02/03 06:05:39;;;;;;;55.53;22.10;;;;;;;;;;5039628;28;20534;-80
2023/02/03 06:08:06;;;;;;;67.57;26.50;;;;;;;;;;5064299;28;20426;-81
2023/02/03 06:10:32;;;;;;;61.83;26.70;;;;;;;;;;5007225;28;20033;-82
2023/02/03 06:12:58;;;;;;;58.92;24.08;;;;;;;;;;5058648;28;20873;-83
2023/02/03 06:15:24;;;;;;;52.63;22.42;;;;;;;;;;5057296;28;20025;-82
2023/02/03 06:17:50;;;;;;;38.15;15.38;;;;;;;;;;5034852;28;20052;-80
2023/02/03 06:20:17;;;;;;;52.45;23.23;;;;;;;;;;5038063;28;20075;-82
2023/02/03 06:22:43;;;;;;;42.83;20.13;;;;;;;;;;5056489;28;20041;-82
2023/02/03 06:25:09;;;;;;;46.63;16.73;;;;;;;;;;5057737;28;20058;-85
2023/02/03 06:27:34;;;;;;;43.38;19.85;;;;;;;;;;5052007;28;20033;-79
2023/02/03 06:30:01;;;;;;;56.10;23.75;;;;;;;;;;5058149;28;20090;-77
2023/02/03 06:32:28;;;;;;;38.13;19.38;;;;;;;;;;5031727;28;20026;-78
2023/02/03 06:34:54;;;;;;;58.30;24.15;;;;;;;;;;5015413;28;20059;-79
2023/02/03 06:37:19;;;;;;;65.85;24.73;;;;;;;;;;5032638;28;20056;-79
2023/02/03 06:39:45;;;;;;;44.55;20.88;;;;;;;;;;5012840;28;20037;-75
2023/02/03 06:42:12;;;;;;;45.17;19.63;;;;;;;;;;5043074;28;20542;-79
2023/02/03 06:44:38;;;;;;;39.80;19.42;;;;;;;;;;5058414;28;20075;-80
2023/02/03 06:47:04;;;;;;;52.00;21.77;;;;;;;;;;5026118;28;20025;-80
2023/02/03 06:49:30;;;;;;;30.77;15.02;;;;;;;;;;5031060;28;20044;-80
2023/02/03 06:51:56;;;;;;;34.85;14.73;;;;;;;;;;5034591;28;20021;-79
2023/02/03 06:54:22;;;;;;;40.10;17.75;;;;;;;;;;5048971;28;20586;-80
2023/02/03 06:56:48;;;;;;;51.00;21.13;;;;;;;;;;5073460;28;20059;-85
2023/02/03 06:59:14;;;;;;;45.85;20.17;;;;;;;;;;5040259;28;20048;-85
2023/02/03 07:01:40;;;;;;;68.43;26.88;;;;;;;;;;5064373;28;20032;-84
2023/02/03 07:04:06;;;;;;;42.40;19.88;;;;;;;;;;5075232;28;20043;-85
2023/02/03 07:06:33;;;;;;;61.25;23.02;;;;;;;;;;5033966;28;20032;-84
2023/02/03 07:08:59;;;;;;;48.88;19.70;;;;;;;;;;5075936;28;20041;-85
2023/02/03 07:11:25;;;;;;;55.30;21.80;;;;;;;;;;5051397;28;20056;-83
2023/02/03 07:13:51;;;;;;;59.65;23.50;;;;;;;;;;5046271;28;20029;-83
2023/02/03 07:16:17;;;;;;;46.10;20.75;;;;;;;;;;5045374;28;20037;-82
2023/02/03 07:18:43;;;;;;;57.00;19.55;;;;;;;;;;5057492;28;20040;-79
2023/02/03 07:21:09;;;;;;;44.40;18.33;;;;;;;;;;5049919;28;20029;-80
2023/02/03 07:23:35;;;;;;;32.55;14.88;;;;;;;;;;5057132;28;20088;-82
2023/02/03 07:26:03;;;;;;;52.40;20.42;;;;;;;;;;5061943;28;20028;-84
2023/02/03 07:28:32;;;;;;;33.28;15.27;;;;;;;;;;5042064;28;20033;-84
2023/02/03 07:30:59;;;;;;;58.70;22.92;;;;;;;;;;5041010;28;20021;-86
2023/02/03 07:33:26;;;;;;;48.33;19.88;;;;;;;;;;5055083;28;20040;-83
2023/02/03 07:35:52;;;;;;;41.10;19.92;;;;;;;;;;5064312;28;20032;-84
2023/02/03 07:38:18;;;;;;;42.08;17.90;;;;;;;;;;5054539;28;20041;-84
2023/02/03 07:40:44;;;;;;;36.67;16.83;;;;;;;;;;5058014;28;20029;-84
2023/02/03 07:43:10;;;;;;;37.55;17.73;;;;;;;;;;5057464;28;20068;-86
2023/02/03 07:45:36;;;;;;;24.05;13.68;;;;;;;;;;5061663;28;20033;-82
2023/02/03 07:48:02;;;;;;;45.83;20.38;;;;;;;;;;5057992;28;20056;-84
2023/02/03 07:50:28;;;;;;;29.83;15.65;;;;;;;;;;5037898;28;20145;-83
2023/02/03 07:52:54;;;;;;;30.55;15.07;;;;;;;;;;5042436;28;20550;-83
2023/02/03 07:55:21;;;;;;;24.38;12.73;;;;;;;;;;5062800;28;20033;-83
2023/02/03 07:57:46;;;;;;;32.20;16.15;;;;;;;;;;5067806;28;20017;-81
2023/02/03 08:00:13;;;;;;;37.28;19.33;;;;;;;;;;5065043;28;20039;-85
2023/02/03 08:02:39;;;;;;;30.48;16.40;;;;;;;;;;5066638;28;20148;-83
2023/02/03 08:05:06;;;;;;;45.85;18.48;;;;;;;;;;5050131;28;20086;-84
2023/02/03 08:07:32;;;;;;;39.08;19.50;;;;;;;;;;5063205;28;20124;-82
2023/02/03 08:09:58;;;;;;;31.65;16.63;;;;;;;;;;5047227;28;20030;-84
2023/02/03 08:12:24;;;;;;;27.48;14.80;;;;;;;;;;5068831;28;20033;-84
2023/02/03 08:14:50;;;;;;;30.15;14.35;;;;;;;;;;5067654;28;20025;-83
2023/02/03 08:17:16;;;;;;;42.15;15.70;;;;;;;;;;5050830;28;20100;-84
2023/02/03 08:19:42;;;;;;;39.40;18.25;;;;;;;;;;5068142;28;20037;-84
2023/02/03 08:22:14;;;;;;;40.55;19.27;;;;;;;;;;5066829;28;20041;-84
2023/02/03 08:24:44;;;;;;;33.30;17.25;;;;;;;;;;5068081;28;20033;-84
2023/02/03 08:27:11;;;;;;;39.80;18.45;;;;;;;;;;5049136;28;20043;-85
2023/02/03 08:29:37;;;;;;;33.60;15.75;;;;;;;;;;5050229;28;20072;-85
2023/02/03 08:32:03;;;;;;;39.75;20.23;;;;;;;;;;5064766;28;20036;-83
2023/02/03 08:34:29;;;;;;;33.30;17.52;;;;;;;;;;5065383;28;20033;-83
2023/02/03 08:36:55;;;;;;;43.95;20.13;;;;;;;;;;5063948;28;20093;-81
2023/02/03 08:39:22;;;;;;;35.70;17.20;;;;;;;;;;5044569;28;20059;-83
2023/02/03 08:41:48;;;;;;;34.38;16.10;;;;;;;;;;5046015;28;20087;-81
2023/02/03 08:44:14;;;;;;;51.05;25.38;;;;;;;;;;5046852;28;20558;-82
2023/02/03 08:46:42;;;;;;;40.42;19.77;;;;;;;;;;5047527;28;20029;-83
2023/02/03 08:49:09;;;;;;;31.88;15.60;;;;;;;;;;5062096;28;20045;-83
2023/02/03 08:51:35;;;;;;;30.90;18.15;;;;;;;;;;5042479;28;20040;-83
2023/02/03 08:54:01;;;;;;;35.22;17.00;;;;;;;;;;5060868;28;20534;-82
2023/02/03 08:56:27;;;;;;;29.70;17.75;;;;;;;;;;5060347;28;20511;-79
2023/02/03 08:58:53;;;;;;;30.00;15.52;;;;;;;;;;5059588;28;20115;-80
2023/02/03 09:01:18;;;;;;;32.03;18.00;;;;;;;;;;5056595;28;20120;-82
2023/02/03 09:03:44;;;;;;;36.20;19.02;;;;;;;;;;5056392;28;20100;-74
2023/02/03 09:06:11;;;;;;;35.60;18.15;;;;;;;;;;5053454;28;20074;-81
2023/02/03 09:08:37;;;;;;;31.58;17.48;;;;;;;;;;5053483;28;20048;-79
2023/02/03 09:11:08;;;;;;;30.95;15.48;;;;;;;;;;5035761;28;20032;-83
2023/02/03 09:13:34;;;;;;;26.25;13.70;;;;;;;;;;5035158;28;20104;-80
2023/02/03 09:16:00;;;;;;;29.02;15.88;;;;;;;;;;5057326;28;20079;-79
2023/02/03 09:18:26;;;;;;;35.35;17.90;;;;;;;;;;5020287;28;20088;-79
2023/02/03 09:20:52;;;;;;;29.17;15.88;;;;;;;;;;5032445;28;20028;-79
2023/02/03 09:23:18;;;;;;;23.52;13.60;;;;;;;;;;5040539;28;20138;-81
2023/02/03 09:25:44;;;;;;;35.08;17.58;;;;;;;;;;5056136;28;20033;-82
2023/02/03 09:28:10;;;;;;;36.08;17.63;;;;;;;;;;5053605;28;20087;-79
2023/02/03 09:30:36;;;;;;;31.55;15.98;;;;;;;;;;5056805;28;20029;-81
2023/02/03 09:33:02;;;;;;;24.42;15.25;;;;;;;;;;5035327;28;20075;-84
2023/02/03 09:35:29;;;;;;;31.42;16.25;;;;;;;;;;5014789;28;20053;-82
2023/02/03 09:37:55;;;;;;;29.63;17.60;;;;;;;;;;5057711;28;20029;-78
2023/02/03 09:40:26;;;;;;;22.42;14.07;;;;;;;;;;5050885;28;20067;-79
2023/02/03 09:43:11;;;;;;;25.15;14.30;;;;;;;;;;5058299;28;20055;-79
2023/02/03 09:45:38;;;;;;;32.80;15.63;;;;;;;;;;5051375;28;20045;-79
2023/02/03 09:48:05;;;;;;;28.55;14.27;;;;;;;;;;5033599;28;20047;-80
2023/02/03 09:50:32;;;;;;;35.58;20.33;;;;;;;;;;5018173;28;20044;-79
2023/02/03 09:52:58;;;;;;;24.88;14.13;;;;;;;;;;5054391;28;20036;-81
2023/02/03 09:55:29;;;;;;;21.13;13.57;;;;;;;;;;5024109;28;20097;-83
2023/02/03 09:58:02;;;;;;;23.17;12.75;;;;;;;;;;5042566;28;20044;-80
2023/02/03 10:00:29;;;;;;;21.30;12.95;;;;;;;;;;5056657;28;20041;-81
2023/02/03 10:02:55;;;;;;;28.02;16.92;;;;;;;;;;5054593;28;20068;-79
2023/02/03 10:05:24;;;;;;;23.08;14.18;;;;;;;;;;5051294;28;20092;-80
2023/02/03 10:07:50;;;;;;;30.08;17.45;;;;;;;;;;5053450;28;20473;-80
2023/02/03 10:10:33;;;;;;;21.95;14.27;;;;;;;;;;5052641;28;20087;-79
2023/02/03 10:12:59;;;;;;;24.60;14.75;;;;;;;;;;5053155;28;20033;-78
2023/02/03 10:15:26;;;;;;;23.38;15.65;;;;;;;;;;5058634;28;20295;-78
2023/02/03 10:17:52;;;;;;;21.42;12.80;;;;;;;;;;5061153;28;20036;-76
2023/02/03 10:20:20;;;;;;;20.75;12.60;;;;;;;;;;5058982;28;20041;-76
2023/02/03 10:22:52;;;;;;;15.32;11.80;;;;;;;;;;5041343;28;20049;-78
2023/02/03 10:25:19;;;;;;;23.63;15.95;;;;;;;;;;5047834;28;20025;-78
2023/02/03 10:27:45;;;;;;;24.48;15.48;;;;;;;;;;5032555;28;20026;-82
2023/02/03 10:30:21;;;;;;;16.85;11.13;;;;;;;;;;5022266;28;20115;-80
2023/02/03 10:32:57;;;;;;;29.13;16.52;;;;;;;;;;5041741;28;20116;-76
2023/02/03 10:35:38;;;;;;;39.80;18.45;;;;;;;;;;5024108;28;20128;-76
2023/02/03 10:38:04;;;;;;;31.92;17.27;;;;;;;;;;5046582;28;20029;-78
2023/02/03 10:40:30;;;;;;;23.00;14.40;;;;;;;;;;5048945;28;20124;-83
2023/02/03 10:45:41;;;;;;;17.17;12.15;;;;;;;;;;5055494;28;20043;-82
2023/02/03 10:48:10;;;;;;;20.63;14.23;;;;;;;;;;5053947;28;20051;-82
2023/02/03 10:50:36;;;;;;;25.75;17.38;;;;;;;;;;5057389;28;20033;-80
2023/02/03 10:53:17;;;;;;;24.98;13.15;;;;;;;;;;5025485;28;20032;-83
2023/02/03 10:55:44;;;;;;;25.67;14.05;;;;;;;;;;5076551;28;21379;-83
2023/02/03 10:58:14;;;;;;;15.02;10.75;;;;;;;;;;5027860;28;20033;-83
2023/02/03 11:00:40;;;;;;;20.48;13.63;;;;;;;;;;5008482;28;20039;-82
2023/02/03 11:03:12;;;;;;;25.52;14.10;;;;;;;;;;5058009;28;20041;-80
2023/02/03 11:05:37;;;;;;;18.05;11.55;;;;;;;;;;5031074;28;20040;-80
2023/02/03 11:08:04;;;;;;;16.40;10.90;;;;;;;;;;4998707;28;20037;-81
2023/02/03 11:10:38;;;;;;;18.67;12.05;;;;;;;;;;4990187;28;20554;-79
2023/02/03 11:13:07;;;;;;;21.83;11.98;;;;;;;;;;5031570;28;20107;-80
2023/02/03 11:15:33;;;;;;;18.30;12.32;;;;;;;;;;5015011;28;20499;-81
2023/02/03 11:17:59;;;;;;;14.95;8.70;;;;;;;;;;5015974;28;20294;-81
2023/02/03 11:20:27;;;;;;;24.33;14.95;;;;;;;;;;5034508;28;20041;-83
2023/02/03 11:22:53;;;;;;;14.60;10.55;;;;;;;;;;5017741;28;20143;-81
2023/02/03 11:25:24;;;;;;;14.73;11.23;;;;;;;;;;5023443;28;20503;-84
2023/02/03 11:27:51;;;;;;;21.98;10.60;;;;;;;;;;5048218;28;20033;-84
2023/02/03 11:30:28;;;;;;;17.58;10.45;;;;;;;;;;5049108;28;20037;-84
2023/02/03 11:32:55;;;;;;;17.02;12.02;;;;;;;;;;5031309;28;20057;-83
2023/02/03 11:35:21;;;;;;;15.07;9.40;;;;;;;;;;5036493;28;20042;-83
2023/02/03 11:37:47;;;;;;;13.25;10.45;;;;;;;;;;5062563;28;20033;-81
2023/02/03 11:40:14;;;;;;;12.32;10.88;;;;;;;;;;5041028;28;20036;-84
2023/02/03 11:42:41;;;;;;;20.65;11.57;;;;;;;;;;5071308;28;20108;-84
2023/02/03 11:45:27;;;;;;;11.40;8.73;;;;;;;;;;5010819;28;20040;-84
2023/02/03 11:47:54;;;;;;;15.20;12.13;;;;;;;;;;5043752;28;20075;-82
2023/02/03 11:50:33;;;;;;;11.85;9.30;;;;;;;;;;5033350;28;20518;-81
2023/02/03 11:53:11;;;;;;;10.02;9.00;;;;;;;;;;5031745;28;20438;-81
2023/02/03 11:55:47;;;;;;;10.65;8.15;;;;;;;;;;5028354;28;20486;-81
2023/02/03 11:58:17;;;;;;;15.68;11.52;;;;;;;;;;5036550;28;20033;-81
2023/02/03 12:00:43;;;;;;;9.90;8.88;;;;;;;;;;5054541;28;20554;-82
2023/02/03 12:03:11;;;;;;;11.93;8.48;;;;;;;;;;5060165;28;20048;-82
2023/02/03 12:05:47;;;;;;;10.57;8.32;;;;;;;;;;5063331;28;20037;-82
2023/02/03 12:08:31;;;;;;;9.73;8.75;;;;;;;;;;5046922;28;20041;-85
2023/02/03 12:11:07;;;;;;;14.05;10.00;;;;;;;;;;5066566;28;20344;-80
2023/02/03 12:13:56;;;;;;;10.48;8.50;;;;;;;;;;5073275;28;20114;-83
2023/02/03 12:16:42;;;;;;;12.52;9.52;;;;;;;;;;5051550;28;20037;-82
2023/02/03 12:19:11;;;;;;;13.82;9.77;;;;;;;;;;5036216;28;20048;-82
2023/02/03 12:21:44;;;;;;;11.25;8.88;;;;;;;;;;5037598;28;20123;-82
2023/02/03 12:24:19;;;;;;;8.75;7.93;;;;;;;;;;5039256;28;20045;-82
2023/02/03 12:26:54;;;;;;;11.90;9.95;;;;;;;;;;5026418;28;20041;-83
2023/02/03 12:29:22;;;;;;;13.52;10.20;;;;;;;;;;5072059;28;20046;-84
2023/02/03 12:32:07;;;;;;;6.22;5.72;;;;;;;;;;5057206;28;20036;-84
2023/02/03 12:34:46;;;;;;;7.10;5.55;;;;;;;;;;5058480;28;20036;-84
2023/02/03 12:37:14;;;;;;;13.13;9.75;;;;;;;;;;5058008;28;20028;-84
2023/02/03 12:39:44;;;;;;;14.85;11.68;;;;;;;;;;5051689;28;20049;-83
2023/02/03 12:42:12;;;;;;;9.82;8.70;;;;;;;;;;5022051;28;20093;-83
2023/02/03 12:44:44;;;;;;;11.60;10.48;;;;;;;;;;4990499;28;20045;-81
2023/02/03 12:47:12;;;;;;;7.10;6.40;;;;;;;;;;5002158;28;20045;-80
2023/02/03 12:49:43;;;;;;;15.10;10.40;;;;;;;;;;5000649;28;20048;-83
2023/02/03 12:52:09;;;;;;;;;;;;;;;;;;5021262;28;20045;-83
2023/02/03 12:54:46;;;;;;;12.07;10.85;;;;;;;;;;5033377;28;19914;-83
2023/02/03 12:57:26;;;;;;;12.63;9.85;;;;;;;;;;5019368;28;20034;-81
2023/02/03 13:00:08;;;;;;;16.67;10.68;;;;;;;;;;5010831;28;20087;-82
2023/02/03 13:02:33;;;;;;;;;;;;;;;;;;5016245;28;20046;-81
2023/02/03 13:05:16;;;;;;;9.43;8.52;;;;;;;;;;5010122;28;20003;-81
2023/02/03 13:07:46;;;;;;;14.45;10.95;;;;;;;;;;5006324;28;20049;-81
2023/02/03 13:10:12;;;;;;;10.65;8.57;;;;;;;;;;5012626;28;20040;-80
2023/02/03 13:12:51;;;;;;;13.45;9.98;;;;;;;;;;5011498;28;20121;-81
2023/02/03 13:15:17;;;;;;;14.25;10.02;;;;;;;;;;5012153;28;20084;-79
2023/02/03 13:17:43;;;;;;;11.38;9.77;;;;;;;;;;5015484;28;20040;-80
2023/02/03 13:20:13;;;;;;;14.15;10.82;;;;;;;;;;5008140;28;20113;-79
2023/02/03 13:22:39;;;;;;;18.83;13.95;;;;;;;;;;5002289;28;20474;-79
2023/02/03 13:25:08;;;;;;;14.25;12.18;;;;;;;;;;5006011;28;20088;-79
2023/02/03 13:27:40;;;;;;;22.20;12.60;;;;;;;;;;5004583;28;20504;-79
2023/02/03 13:30:25;;;;;;;14.23;12.15;;;;;;;;;;5008058;28;20447;-80
2023/02/03 13:32:54;;;;;;;11.18;9.38;;;;;;;;;;5015171;28;20040;-80
2023/02/03 13:35:31;;;;;;;12.90;9.65;;;;;;;;;;5018300;28;20041;-78
2023/02/03 13:38:13;;;;;;;10.50;9.15;;;;;;;;;;5011193;28;20111;-79
2023/02/03 13:40:43;;;;;;;16.48;11.18;;;;;;;;;;5009684;28;20033;-80
2023/02/03 13:43:16;;;;;;;12.48;8.38;;;;;;;;;;5012486;28;21411;-79
2023/02/03 13:45:44;;;;;;;10.32;7.65;;;;;;;;;;5019308;28;20029;-81
2023/02/03 13:48:20;;;;;;;10.75;7.53;;;;;;;;;;5005608;28;20038;-78
2023/02/03 13:50:46;;;;;;;12.10;9.30;;;;;;;;;;5001866;28;20042;-79
2023/02/03 13:53:20;;;;;;;15.85;11.65;;;;;;;;;;4994509;28;20038;-82
2023/02/03 13:55:53;;;;;;;18.20;10.10;;;;;;;;;;5009804;28;20041;-76
2023/02/03 13:58:20;;;;;;;10.27;8.80;;;;;;;;;;5003169;28;20682;-81
2023/02/03 14:00:46;;;;;;;12.52;9.25;;;;;;;;;;5024746;28;20040;-81
2023/02/03 14:03:15;;;;;;;16.95;11.18;;;;;;;;;;5002056;28;20444;-79
2023/02/03 14:05:48;;;;;;;22.02;14.40;;;;;;;;;;5010255;28;20099;-78
2023/02/03 14:08:29;;;;;;;17.23;11.90;;;;;;;;;;5022258;28;20104;-81
2023/02/03 14:11:14;;;;;;;24.02;12.93;;;;;;;;;;5013119;28;20572;-76
2023/02/03 14:13:40;;;;;;;17.15;12.93;;;;;;;;;;5014466;28;20451;-79
2023/02/03 14:16:13;;;;;;;11.10;9.95;;;;;;;;;;5011712;28;20814;-78
2023/02/03 14:18:45;;;;;;;17.27;12.50;;;;;;;;;;4997290;28;20030;-79
2023/02/03 14:21:12;;;;;;;18.00;11.73;;;;;;;;;;5023802;28;20057;-82
2023/02/03 14:23:39;;;;;;;20.00;13.43;;;;;;;;;;5022495;28;20041;-81
2023/02/03 14:26:05;;;;;;;24.55;16.58;;;;;;;;;;5032275;28;20030;-84
2023/02/03 14:28:41;;;;;;;22.17;14.80;;;;;;;;;;5024780;28;20025;-81
2023/02/03 14:31:09;;;;;;;20.85;12.07;;;;;;;;;;5018620;28;20056;-83